Time,TemperatureF,DewpointF,PressureIn,WindDirection,WindDirectionDegrees,WindSpeedMPH,WindSpeedGustMPH,Humidity,HourlyPrecipIn,Conditions,Clouds,dailyrainin,SoftwareType,DateUTC
2014-01-02 00:06:00,43.0,20.3,28.55,North,-999,0.0,0.0,40,0.00,,,-99.99,FreeWX-Wi 1.02,2014-01-02 07:06:00,
2014-01-02 00:16:00,43.2,21.0,28.55,North,-999,0.0,0.0,41,0.00,,,-99.99,FreeWX-Wi 1.02,2014-01-02 07:16:00,
2014-01-02 00:26:00,43.0,20.8,28.55,North,-999,0.0,0.0,41,0.00,,,-99.99,FreeWX-Wi 1.02,2014-01-02 07:26:00,
2014-01-02 00:36:00,42.4,21.0,28.55,North,-999,0.0,0.0,42,0.00,,,-99.99,FreeWX-Wi 1.02,2014-01-02 07:36:00,
2014-01-02 00:46:00,42.3,21.4,28.55,North,-999,0.0,0.0,43,0.00,,,-99.99,FreeWX-Wi 1.02,2014-01-02 07:46:00,
2014-01-02 00:56:00,42.1,21.2,28.55,North,-999,0.0,2.2,43,0.00,,,-99.99,FreeWX-Wi 1.02,2014-01-02 07:56:00,
2014-01-02 01:06:00,41.5,20.7,28.55,North,-999,0.0,0.0,43,0.00,,,-99.99,FreeWX-Wi 1.02,2014-01-02 08:06:00,
2014-01-02 01:16:00,41.0,20.3,28.55,North,-999,0.0,2.7,43,0.00,,,-99.99,FreeWX-Wi 1.02,2014-01-02 08:16:00,
2014-01-02 01:26:00,40.8,20.7,28.55,North,-999,0.0,0.0,44,0.00,,,-99.99,FreeWX-Wi 1.02,2014-01-02 08:26:00,
2014-01-02 01:36:00,40.6,21.0,28.55,North,-999,0.0,0.0,45,0.00,,,-99.99,FreeWX-Wi 1.02,2014-01-02 08:36:00,
2014-01-02 01:46:00,40.3,20.7,28.55,North,-999,0.0,0.0,45,0.00,,,-99.99,FreeWX-Wi 1.02,2014-01-02 08:46:00,
2014-01-02 01:56:00,40.1,21.0,28.55,North,-999,0.0,0.0,46,0.00,,,-99.99,FreeWX-Wi 1.02,2014-01-02 08:56:00,
2014-01-02 02:06:00,39.7,21.2,28.55,North,-999,0.0,0.0,47,0.00,,,-99.99,FreeWX-Wi 1.02,2014-01-02 09:06:00,
2014-01-02 02:16:00,39.6,21.0,28.55,North,-999,0.0,0.0,47,0.00,,,-99.99,FreeWX-Wi 1.02,2014-01-02 09:16:00,
2014-01-02 02:26:00,39.4,21.4,28.55,North,-999,0.0,0.0,48,0.00,,,-99.99,FreeWX-Wi 1.02,2014-01-02 09:26:00,
2014-01-02 02:36:00,39.4,21.4,28.55,North,-999,0.0,0.0,48,0.00,,,-99.99,FreeWX-Wi 1.02,2014-01-02 09:36:00,
2014-01-02 02:46:00,39.0,21.6,28.58,North,-999,0.0,0.0,49,0.00,,,-99.99,FreeWX-Wi 1.02,2014-01-02 09:46:00,
2014-01-02 02:56:00,38.7,21.2,28.58,North,-999,0.0,0.0,49,0.00,,,-99.99,FreeWX-Wi 1.02,2014-01-02 09:56:00,
2014-01-02 03:06:00,38.5,21.0,28.58,North,-999,0.0,0.0,49,0.00,,,-99.99,FreeWX-Wi 1.02,2014-01-02 10:06:00,
2014-01-02 03:16:00,38.3,21.4,28.58,North,-999,0.0,0.0,50,0.00,,,-99.99,FreeWX-Wi 1.02,2014-01-02 10:16:00,
2014-01-02 03:26:00,38.1,21.2,28.58,North,-999,0.0,0.0,50,0.00,,,-99.99,FreeWX-Wi 1.02,2014-01-02 10:26:00,
2014-01-02 03:36:00,38.1,21.2,28.58,North,-999,0.0,0.0,50,0.00,,,-99.99,FreeWX-Wi 1.02,2014-01-02 10:36:00,
2014-01-02 03:46:00,37.9,21.4,28.58,North,-999,0.0,0.0,51,0.00,,,-99.99,FreeWX-Wi 1.02,2014-01-02 10:46:00,
2014-01-02 03:56:00,37.8,21.2,28.58,North,-999,0.0,3.1,51,0.00,,,-99.99,FreeWX-Wi 1.02,2014-01-02 10:56:00,
2014-01-02 04:06:00,37.6,21.2,28.58,North,-999,0.0,3.1,51,0.00,,,-99.99,FreeWX-Wi 1.02,2014-01-02 11:06:00,
2014-01-02 04:16:00,37.6,21.2,28.58,North,-999,0.0,0.0,51,0.00,,,-99.99,FreeWX-Wi 1.02,2014-01-02 11:16:00,
2014-01-02 04:26:00,37.6,21.2,28.58,North,-999,0.0,0.0,51,0.00,,,-99.99,FreeWX-Wi 1.02,2014-01-02 11:26:00,
2014-01-02 04:36:00,37.6,21.2,28.58,North,-999,0.0,2.7,51,0.00,,,-99.99,FreeWX-Wi 1.02,2014-01-02 11:36:00,
2014-01-02 04:46:00,37.6,21.2,28.58,North,-999,0.0,2.7,51,0.00,,,-99.99,FreeWX-Wi 1.02,2014-01-02 11:46:00,
2014-01-02 04:56:00,37.6,21.2,28.58,North,-999,0.0,0.0,51,0.00,,,-99.99,FreeWX-Wi 1.02,2014-01-02 11:56:00,
2014-01-02 05:06:00,37.6,21.2,28.58,North,-999,0.0,0.0,51,0.00,,,-99.99,FreeWX-Wi 1.02,2014-01-02 12:06:00,
2014-01-02 05:16:00,37.6,21.2,28.58,North,-999,0.0,0.0,51,0.00,,,-99.99,FreeWX-Wi 1.02,2014-01-02 12:16:00,
2014-01-02 05:26:00,37.6,21.2,28.58,North,-999,0.0,0.0,51,0.00,,,-99.99,FreeWX-Wi 1.02,2014-01-02 12:26:00,
2014-01-02 05:36:00,37.4,21.0,28.58,North,-999,0.0,0.0,51,0.00,,,-99.99,FreeWX-Wi 1.02,2014-01-02 12:36:00,
2014-01-02 05:46:00,37.0,20.7,28.58,North,-999,0.0,0.0,51,0.00,,,-99.99,FreeWX-Wi 1.02,2014-01-02 12:46:00,
2014-01-02 05:56:00,36.9,20.5,28.58,North,-999,0.0,0.0,51,0.00,,,-99.99,FreeWX-Wi 1.02,2014-01-02 12:56:00,
2014-01-02 06:06:00,36.5,20.1,28.58,North,-999,0.0,0.0,51,0.00,,,-99.99,FreeWX-Wi 1.02,2014-01-02 13:06:00,
2014-01-02 06:16:00,36.5,20.1,28.58,North,-999,0.0,0.0,51,0.00,,,-99.99,FreeWX-Wi 1.02,2014-01-02 13:16:00,
2014-01-02 06:26:00,36.1,19.8,28.58,North,-999,0.0,0.0,51,0.00,,,-99.99,FreeWX-Wi 1.02,2014-01-02 13:26:00,
2014-01-02 06:36:00,36.1,20.3,28.58,North,-999,0.0,0.0,52,0.00,,,-99.99,FreeWX-Wi 1.02,2014-01-02 13:36:00,
2014-01-02 06:46:00,36.0,20.1,28.58,North,-999,0.0,0.0,52,0.00,,,-99.99,FreeWX-Wi 1.02,2014-01-02 13:46:00,
2014-01-02 06:56:00,36.0,20.5,28.58,North,-999,0.0,0.0,53,0.00,,,-99.99,FreeWX-Wi 1.02,2014-01-02 13:56:00,
2014-01-02 07:06:00,35.8,20.3,28.58,North,-999,0.0,0.0,53,0.00,,,-99.99,FreeWX-Wi 1.02,2014-01-02 14:06:00,
2014-01-02 07:16:00,35.8,20.3,28.58,North,-999,0.0,0.0,53,0.00,,,-99.99,FreeWX-Wi 1.02,2014-01-02 14:16:00,
2014-01-02 07:26:00,36.0,21.0,28.58,North,-999,0.0,0.0,54,0.00,,,-99.99,FreeWX-Wi 1.02,2014-01-02 14:26:00,
2014-01-02 07:36:00,35.8,20.8,28.58,North,-999,0.0,0.0,54,0.00,,,-99.99,FreeWX-Wi 1.02,2014-01-02 14:36:00,
2014-01-02 07:46:00,35.6,20.7,28.58,North,-999,0.0,0.0,54,0.00,,,-99.99,FreeWX-Wi 1.02,2014-01-02 14:46:00,
2014-01-02 07:56:00,35.8,20.8,28.58,North,-999,0.0,0.0,54,0.00,,,-99.99,FreeWX-Wi 1.02,2014-01-02 14:56:00,
2014-01-02 08:06:00,36.1,21.6,28.58,North,-999,0.0,0.0,55,0.00,,,-99.99,FreeWX-Wi 1.02,2014-01-02 15:06:00,
2014-01-02 08:16:00,36.9,22.3,28.58,North,-999,0.0,0.0,55,0.00,,,-99.99,FreeWX-Wi 1.02,2014-01-02 15:16:00,
2014-01-02 08:26:00,37.6,22.8,28.58,North,-999,0.0,0.0,55,0.00,,,-99.99,FreeWX-Wi 1.02,2014-01-02 15:26:00,
2014-01-02 08:36:00,39.0,24.3,28.58,North,-999,0.0,0.0,55,0.00,,,-99.99,FreeWX-Wi 1.02,2014-01-02 15:36:00,
2014-01-02 08:46:00,40.5,25.2,28.58,North,-999,0.0,0.0,54,0.00,,,-99.99,FreeWX-Wi 1.02,2014-01-02 15:46:00,
2014-01-02 08:56:00,43.3,26.4,28.58,North,-999,0.0,0.0,51,0.00,,,-99.99,FreeWX-Wi 1.02,2014-01-02 15:56:00,
2014-01-02 09:06:00,47.1,27.5,28.58,North,-999,0.0,2.7,46,0.00,,,-99.99,FreeWX-Wi 1.02,2014-01-02 16:06:00,
2014-01-02 09:16:00,49.3,25.3,28.61,North,-999,0.0,3.1,39,0.00,,,-99.99,FreeWX-Wi 1.02,2014-01-02 16:16:00,
2014-01-02 09:26:00,50.2,24.3,28.61,NW,316,1.0,4.9,36,0.00,,,-99.99,FreeWX-Wi 1.02,2014-01-02 16:26:00,
2014-01-02 09:36:00,50.9,23.5,28.61,NW,316,1.0,4.9,34,0.00,,,-99.99,FreeWX-Wi 1.02,2014-01-02 16:36:00,
2014-01-02 09:46:00,52.2,23.2,28.61,NW,316,1.0,3.6,32,0.00,,,-99.99,FreeWX-Wi 1.02,2014-01-02 16:46:00,
2014-01-02 09:56:00,53.8,23.0,28.61,NW,316,1.0,3.6,30,0.00,,,-99.99,FreeWX-Wi 1.02,2014-01-02 16:56:00,
2014-01-02 10:06:00,54.7,22.3,28.61,NW,316,1.0,4.0,28,0.00,,,-99.99,FreeWX-Wi 1.02,2014-01-02 17:06:00,
2014-01-02 10:16:00,56.1,22.6,28.61,NW,316,2.0,4.9,27,0.00,,,-99.99,FreeWX-Wi 1.02,2014-01-02 17:16:00,
2014-01-02 10:26:00,57.7,22.1,28.61,NW,316,2.0,4.0,25,0.00,,,-99.99,FreeWX-Wi 1.02,2014-01-02 17:26:00,
2014-01-02 10:36:00,59.0,22.3,28.61,NW,316,2.0,4.0,24,0.00,,,-99.99,FreeWX-Wi 1.02,2014-01-02 17:36:00,
2014-01-02 10:46:00,59.7,17.4,28.58,NW,318,2.0,4.5,19,0.00,,,-99.99,FreeWX-Wi 1.02,2014-01-02 17:46:00,
2014-01-02 10:56:00,61.2,14.7,28.58,North,2,1.0,3.6,16,0.00,,,-99.99,FreeWX-Wi 1.02,2014-01-02 17:56:00,
2014-01-02 11:06:00,62.2,15.4,28.58,East,99,1.0,3.1,16,0.00,,,-99.99,FreeWX-Wi 1.02,2014-01-02 18:06:00,
2014-01-02 11:16:00,63.7,12.0,28.58,North,-999,0.0,3.1,13,0.00,,,-99.99,FreeWX-Wi 1.02,2014-01-02 18:16:00,
2014-01-02 11:26:00,63.7,12.0,28.58,North,-999,0.0,3.6,13,0.00,,,-99.99,FreeWX-Wi 1.02,2014-01-02 18:26:00,
2014-01-02 11:36:00,63.5,11.8,28.58,NE,52,1.0,4.0,13,0.00,,,-99.99,FreeWX-Wi 1.02,2014-01-02 18:36:00,
2014-01-02 11:46:00,63.3,7.9,28.55,North,-999,0.0,3.6,11,0.00,,,-99.99,FreeWX-Wi 1.02,2014-01-02 18:46:00,
2014-01-02 11:56:00,64.4,6.6,28.55,North,-999,0.0,3.1,10,0.00,,,-99.99,FreeWX-Wi 1.02,2014-01-02 18:56:00,
2014-01-02 12:06:00,64.6,6.8,28.55,NE,34,1.0,4.0,10,0.00,,,-99.99,FreeWX-Wi 1.02,2014-01-02 19:06:00,
2014-01-02 12:16:00,65.3,7.3,28.55,NNE,30,1.0,2.7,10,0.00,,,-99.99,FreeWX-Wi 1.02,2014-01-02 19:16:00,
2014-01-02 12:26:00,66.2,8.1,28.55,North,-999,0.0,3.1,10,0.00,,,-99.99,FreeWX-Wi 1.02,2014-01-02 19:26:00,
2014-01-02 12:36:00,67.1,8.8,28.52,North,-999,0.0,3.1,10,0.00,,,-99.99,FreeWX-Wi 1.02,2014-01-02 19:36:00,
2014-01-02 12:46:00,68.0,9.5,28.52,NE,46,1.0,4.5,10,0.00,,,-99.99,FreeWX-Wi 1.02,2014-01-02 19:46:00,
2014-01-02 12:56:00,69.1,10.2,28.52,ENE,61,2.0,4.9,10,0.00,,,-99.99,FreeWX-Wi 1.02,2014-01-02 19:56:00,
2014-01-02 13:06:00,69.8,10.8,28.52,ENE,69,2.0,5.8,10,0.00,,,-99.99,FreeWX-Wi 1.02,2014-01-02 20:06:00,
2014-01-02 13:16:00,70.2,11.1,28.50,NE,54,3.0,5.4,10,0.00,,,-99.99,FreeWX-Wi 1.02,2014-01-02 20:16:00,
2014-01-02 13:26:00,70.7,11.5,28.50,NE,39,3.0,4.9,10,0.00,,,-99.99,FreeWX-Wi 1.02,2014-01-02 20:26:00,
2014-01-02 13:36:00,71.2,11.8,28.50,NNE,21,2.0,4.9,10,0.00,,,-99.99,FreeWX-Wi 1.02,2014-01-02 20:36:00,
2014-01-02 13:46:00,72.0,12.4,28.50,NE,41,3.0,6.3,10,0.00,,,-99.99,FreeWX-Wi 1.02,2014-01-02 20:46:00,
2014-01-02 13:56:00,72.5,12.9,28.50,NE,45,3.0,5.8,10,0.00,,,-99.99,FreeWX-Wi 1.02,2014-01-02 20:56:00,
2014-01-02 14:06:00,73.2,13.5,28.50,ENE,63,3.0,6.3,10,0.00,,,-99.99,FreeWX-Wi 1.02,2014-01-02 21:06:00,
2014-01-02 14:16:00,73.6,13.6,28.50,ENE,66,3.0,7.2,10,0.00,,,-99.99,FreeWX-Wi 1.02,2014-01-02 21:16:00,
2014-01-02 14:26:00,74.1,14.0,28.50,ENE,72,4.0,7.6,10,0.00,,,-99.99,FreeWX-Wi 1.02,2014-01-02 21:26:00,
2014-01-02 14:36:00,74.3,14.2,28.47,ENE,70,4.0,8.3,10,0.00,,,-99.99,FreeWX-Wi 1.02,2014-01-02 21:36:00,
2014-01-02 14:46:00,74.5,14.4,28.47,ENE,74,4.0,8.1,10,0.00,,,-99.99,FreeWX-Wi 1.02,2014-01-02 21:46:00,
2014-01-02 14:56:00,74.5,14.4,28.47,ENE,73,4.0,7.6,10,0.00,,,-99.99,FreeWX-Wi 1.02,2014-01-02 21:56:00,
2014-01-02 15:06:00,74.7,14.5,28.47,ENE,71,4.0,6.7,10,0.00,,,-99.99,FreeWX-Wi 1.02,2014-01-02 22:06:00,
2014-01-02 15:16:00,74.7,14.5,28.47,ENE,66,4.0,8.1,10,0.00,,,-99.99,FreeWX-Wi 1.02,2014-01-02 22:16:00,
2014-01-02 15:26:00,74.5,14.4,28.47,ENE,65,4.0,7.6,10,0.00,,,-99.99,FreeWX-Wi 1.02,2014-01-02 22:26:00,
2014-01-02 15:36:00,74.5,14.4,28.47,ENE,63,4.0,6.3,10,0.00,,,-99.99,FreeWX-Wi 1.02,2014-01-02 22:36:00,
2014-01-02 15:46:00,74.3,14.2,28.47,ENE,57,4.0,8.1,10,0.00,,,-99.99,FreeWX-Wi 1.02,2014-01-02 22:46:00,
2014-01-02 15:56:00,74.1,14.0,28.47,NE,50,3.0,6.3,10,0.00,,,-99.99,FreeWX-Wi 1.02,2014-01-02 22:56:00,
2014-01-02 16:06:00,73.9,14.0,28.47,NE,48,3.0,6.3,10,0.00,,,-99.99,FreeWX-Wi 1.02,2014-01-02 23:06:00,
2014-01-02 16:16:00,73.4,13.5,28.47,NE,51,3.0,8.3,10,0.00,,,-99.99,FreeWX-Wi 1.02,2014-01-02 23:16:00,
2014-01-02 16:26:00,72.9,13.1,28.47,NE,52,3.0,5.8,10,0.00,,,-99.99,FreeWX-Wi 1.02,2014-01-02 23:26:00,
2014-01-02 16:36:00,72.3,12.7,28.47,NE,49,3.0,5.4,10,0.00,,,-99.99,FreeWX-Wi 1.02,2014-01-02 23:36:00,
2014-01-02 16:46:00,71.6,12.2,28.44,NE,42,2.0,5.8,10,0.00,,,-99.99,FreeWX-Wi 1.02,2014-01-02 23:46:00,
2014-01-02 16:56:00,70.7,11.5,28.44,NNE,31,2.0,5.4,10,0.00,,,-99.99,FreeWX-Wi 1.02,2014-01-02 23:56:00,
2014-01-02 17:06:00,70.2,11.1,28.47,NE,36,2.0,5.4,10,0.00,,,-99.99,FreeWX-Wi 1.02,2014-01-03 00:06:00,
2014-01-02 17:16:00,69.4,10.6,28.47,NE,55,1.0,4.0,10,0.00,,,-99.99,FreeWX-Wi 1.02,2014-01-03 00:16:00,
2014-01-02 17:26:00,68.7,10.0,28.47,ENE,59,1.0,4.0,10,0.00,,,-99.99,FreeWX-Wi 1.02,2014-01-03 00:26:00,
2014-01-02 17:36:00,67.8,9.3,28.47,NE,44,1.0,4.0,10,0.00,,,-99.99,FreeWX-Wi 1.02,2014-01-03 00:36:00,
2014-01-02 17:46:00,67.1,8.8,28.47,NNE,32,1.0,3.6,10,0.00,,,-99.99,FreeWX-Wi 1.02,2014-01-03 00:46:00,
2014-01-02 17:56:00,66.6,8.2,28.47,NNE,33,1.0,4.9,10,0.00,,,-99.99,FreeWX-Wi 1.02,2014-01-03 00:56:00,
2014-01-02 18:06:00,66.2,8.1,28.47,NE,36,1.0,4.0,10,0.00,,,-99.99,FreeWX-Wi 1.02,2014-01-03 01:06:00,
2014-01-02 18:16:00,65.8,7.7,28.47,NE,35,1.0,5.8,10,0.00,,,-99.99,FreeWX-Wi 1.02,2014-01-03 01:16:00,
2014-01-02 18:26:00,65.5,7.5,28.47,NNE,33,1.0,4.0,10,0.00,,,-99.99,FreeWX-Wi 1.02,2014-01-03 01:26:00,
2014-01-02 18:36:00,64.9,7.2,28.47,NNE,29,1.0,4.0,10,0.00,,,-99.99,FreeWX-Wi 1.02,2014-01-03 01:36:00,
2014-01-02 18:46:00,64.8,7.0,28.47,NE,35,2.0,5.4,10,0.00,,,-99.99,FreeWX-Wi 1.02,2014-01-03 01:46:00,
2014-01-02 18:56:00,64.8,7.0,28.47,NE,42,2.0,5.4,10,0.00,,,-99.99,FreeWX-Wi 1.02,2014-01-03 01:56:00,
2014-01-02 19:06:00,64.8,7.0,28.47,NE,51,2.0,5.8,10,0.00,,,-99.99,FreeWX-Wi 1.02,2014-01-03 02:06:00,
2014-01-02 19:16:00,64.8,7.0,28.47,NE,51,2.0,4.9,10,0.00,,,-99.99,FreeWX-Wi 1.02,2014-01-03 02:16:00,
2014-01-02 19:26:00,64.6,6.8,28.47,NE,52,3.0,5.8,10,0.00,,,-99.99,FreeWX-Wi 1.02,2014-01-03 02:26:00,
2014-01-02 19:36:00,64.4,6.6,28.47,NE,51,3.0,5.8,10,0.00,,,-99.99,FreeWX-Wi 1.02,2014-01-03 02:36:00,
2014-01-02 19:46:00,64.2,8.6,28.47,NE,54,3.0,5.8,11,0.00,,,-99.99,FreeWX-Wi 1.02,2014-01-03 02:46:00,
2014-01-02 19:56:00,63.9,8.4,28.47,NE,56,3.0,5.4,11,0.00,,,-99.99,FreeWX-Wi 1.02,2014-01-03 02:56:00,
2014-01-02 20:06:00,63.1,7.9,28.47,NE,55,3.0,5.4,11,0.00,,,-99.99,FreeWX-Wi 1.02,2014-01-03 03:06:00,
2014-01-02 20:16:00,62.6,7.3,28.47,NE,53,2.0,4.9,11,0.00,,,-99.99,FreeWX-Wi 1.02,2014-01-03 03:16:00,
2014-01-02 20:26:00,62.2,7.2,28.47,NE,51,2.0,4.9,11,0.00,,,-99.99,FreeWX-Wi 1.02,2014-01-03 03:26:00,
2014-01-02 20:36:00,61.7,4.6,28.47,NE,53,2.0,3.6,10,0.00,,,-99.99,FreeWX-Wi 1.02,2014-01-03 03:36:00,
2014-01-02 20:46:00,61.0,4.1,28.47,NE,56,2.0,4.0,10,0.00,,,-99.99,FreeWX-Wi 1.02,2014-01-03 03:46:00,
2014-01-02 20:56:00,61.0,4.1,28.47,ENE,61,1.0,3.6,10,0.00,,,-99.99,FreeWX-Wi 1.02,2014-01-03 03:56:00,
2014-01-02 21:06:00,60.4,3.6,28.47,ENE,65,1.0,3.6,10,0.00,,,-99.99,FreeWX-Wi 1.02,2014-01-03 04:06:00,
2014-01-02 21:16:00,59.5,3.0,28.47,ENE,68,1.0,3.1,10,0.00,,,-99.99,FreeWX-Wi 1.02,2014-01-03 04:16:00,
2014-01-02 21:26:00,58.8,2.5,28.47,ENE,69,1.0,3.6,10,0.00,,,-99.99,FreeWX-Wi 1.02,2014-01-03 04:26:00,
2014-01-02 21:36:00,58.3,1.9,28.47,ENE,70,2.0,3.6,10,0.00,,,-99.99,FreeWX-Wi 1.02,2014-01-03 04:36:00,
2014-01-02 21:46:00,58.1,1.8,28.47,ENE,73,1.0,3.1,10,0.00,,,-99.99,FreeWX-Wi 1.02,2014-01-03 04:46:00,
2014-01-02 21:56:00,58.1,1.8,28.47,ENE,75,1.0,3.1,10,0.00,,,-99.99,FreeWX-Wi 1.02,2014-01-03 04:56:00,
2014-01-02 22:06:00,57.7,1.6,28.47,East,79,1.0,4.0,10,0.00,,,-99.99,FreeWX-Wi 1.02,2014-01-03 05:06:00,
2014-01-02 22:16:00,57.4,1.2,28.47,East,79,1.0,2.7,10,0.00,,,-99.99,FreeWX-Wi 1.02,2014-01-03 05:16:00,
2014-01-02 22:26:00,56.1,0.3,28.47,East,79,1.0,0.0,10,0.00,,,-99.99,FreeWX-Wi 1.02,2014-01-03 05:26:00,
2014-01-02 22:36:00,55.0,-0.6,28.47,North,-999,0.0,2.7,10,0.00,,,-99.99,FreeWX-Wi 1.02,2014-01-03 05:36:00,
2014-01-02 22:46:00,54.3,-1.1,28.47,North,-999,0.0,2.2,10,0.00,,,-99.99,FreeWX-Wi 1.02,2014-01-03 05:46:00,
2014-01-02 22:56:00,53.6,-1.7,28.47,North,-999,0.0,4.0,10,0.00,,,-99.99,FreeWX-Wi 1.02,2014-01-03 05:56:00,
2014-01-02 23:06:00,53.2,0.1,28.47,ESE,102,1.0,5.8,11,0.00,,,-99.99,FreeWX-Wi 1.02,2014-01-03 06:06:00,
2014-01-02 23:16:00,53.4,0.3,28.47,ESE,120,2.0,5.8,11,0.00,,,-99.99,FreeWX-Wi 1.02,2014-01-03 06:16:00,
2014-01-02 23:26:00,53.2,0.1,28.47,SE,130,2.0,4.0,11,0.00,,,-99.99,FreeWX-Wi 1.02,2014-01-03 06:26:00,
2014-01-02 23:36:00,52.7,3.2,28.47,SE,133,2.0,3.1,13,0.00,,,-99.99,FreeWX-Wi 1.02,2014-01-03 06:36:00,
2014-01-02 23:46:00,52.3,3.0,28.47,SE,133,1.0,3.1,13,0.00,,,-99.99,FreeWX-Wi 1.02,2014-01-03 06:46:00,
2014-01-02 23:56:00,51.6,3.9,28.47,SE,129,1.0,4.9,14,0.00,,,-99.99,FreeWX-Wi 1.02,2014-01-03 06:56:00,